PWSweather.com
Personal Weather Stations
Station Observations
WESTON01
WestonSuperMareGB BS22 8RT

WestonSuperMareGB BS22 8RT

Lat: 51.351508, Lon: -2.933373

Elevation: 15

Station Type: Fine Offset WH1080

http://www.westonweather.co.uk

High Low Average
Temperature 73.7°F23.2°C 62.9°F17.2°C 66.1°F18.9°C
Dew Point 61.7°F16.5°C 54.5°F12.5°C 58.3°F14.6°C
Winds 12.2 mph 19.6 kmh 2.6 mph 4.2 kmh 7.0 mph WSW11.3 kmh WSW
Wind Gusts 18.7 mph30.1 kmh 4.2 mph6.8 kmh 12.0 mph19.3 kmh
Humidity 87% 64% 76%
Pressure 30.05 in1017.6 mb 29.90 in1012.5 mb -
Precipitation 0.00 in0.0 mm - -
Hour Temp Dew Point Humidity Winds Wind Gusts Pressure Precip Precip Rate Daily Precip Total
12:00 AM 63.6°F17.6°C 55.5°F13.1°C 75% 10.0 mph WSW16.1 kmh WSW 13.4 mph21.6 kmh 30.02 in1016.6 mb 0.00 in0.0 mm 0.00 in0.0 mm 0.00 in0.0 mm
12:05 AM 63.6°F17.6°C 55.9°F13.3°C 76% 9.2 mph WSW14.8 kmh WSW 13.4 mph21.6 kmh 30.02 in1016.6 mb 0.00 in0.0 mm 0.00 in0.0 mm 0.00 in0.0 mm
12:10 AM 63.6°F17.6°C 55.9°F13.3°C 76% 7.2 mph W11.6 kmh W 13.4 mph21.6 kmh 30.02 in1016.6 mb 0.00 in0.0 mm 0.00 in0.0 mm 0.00 in0.0 mm
12:15 AM 63.6°F17.6°C 55.9°F13.3°C 76% 7.9 mph W12.7 kmh W 16.4 mph26.4 kmh 30.02 in1016.6 mb 0.00 in0.0 mm 0.00 in0.0 mm 0.00 in0.0 mm
12:20 AM 63.4°F17.4°C 55.7°F13.2°C 76% 9.4 mph W15.1 kmh W 16.4 mph26.4 kmh 30.02 in1016.6 mb 0.00 in0.0 mm 0.00 in0.0 mm 0.00 in0.0 mm
12:25 AM 63.4°F17.4°C 55.3°F12.9°C 75% 10.9 mph W17.5 kmh W 17.6 mph28.3 kmh 30.02 in1016.6 mb 0.00 in0.0 mm 0.00 in0.0 mm 0.00 in0.0 mm
12:30 AM 63.2°F17.3°C 55.2°F12.9°C 75% 11.4 mph WNW18.3 kmh WNW 17.6 mph28.3 kmh 30.02 in1016.6 mb 0.00 in0.0 mm 0.00 in0.0 mm 0.00 in0.0 mm
12:35 AM 63.2°F17.3°C 55.2°F12.9°C 75% 8.7 mph W14.0 kmh W 11.6 mph18.7 kmh 30.05 in1017.6 mb 0.00 in0.0 mm 0.00 in0.0 mm 0.00 in0.0 mm
12:40 AM 63.2°F17.3°C 55.2°F12.9°C 75% 10.1 mph WNW16.3 kmh WNW 16.7 mph26.9 kmh 30.05 in1017.6 mb 0.00 in0.0 mm 0.00 in0.0 mm 0.00 in0.0 mm
12:45 AM 63.0°F17.2°C 55.0°F12.8°C 75% 12.1 mph WNW19.5 kmh WNW 16.7 mph26.9 kmh 30.05 in1017.6 mb 0.00 in0.0 mm 0.00 in0.0 mm 0.00 in0.0 mm
12:50 AM 63.0°F17.2°C 54.6°F12.6°C 74% 12.2 mph W19.6 kmh W 16.7 mph26.9 kmh 30.02 in1016.6 mb 0.00 in0.0 mm 0.00 in0.0 mm 0.00 in0.0 mm
12:55 AM 63.0°F17.2°C 54.6°F12.6°C 74% 10.3 mph W16.6 kmh W 14.6 mph23.5 kmh 30.02 in1016.6 mb 0.00 in0.0 mm 0.00 in0.0 mm 0.00 in0.0 mm
01:00 AM 62.9°F17.2°C 54.5°F12.5°C 74% 9.4 mph W15.1 kmh W 14.0 mph22.5 kmh 30.02 in1016.6 mb 0.00 in0.0 mm 0.00 in0.0 mm 0.00 in0.0 mm
01:05 AM 62.9°F17.2°C 54.5°F12.5°C 74% 9.2 mph W14.8 kmh W 14.0 mph22.5 kmh 30.02 in1016.6 mb 0.00 in0.0 mm 0.00 in0.0 mm 0.00 in0.0 mm
01:10 AM 63.0°F17.2°C 55.0°F12.8°C 75% 11.5 mph W18.5 kmh W 17.0 mph27.4 kmh 30.02 in1016.6 mb 0.00 in0.0 mm 0.00 in0.0 mm 0.00 in0.0 mm
01:15 AM 63.0°F17.2°C 54.6°F12.6°C 74% 11.9 mph W19.2 kmh W 17.0 mph27.4 kmh 30.02 in1016.6 mb 0.00 in0.0 mm 0.00 in0.0 mm 0.00 in0.0 mm
01:20 AM 62.9°F17.2°C 54.5°F12.5°C 74% 9.9 mph W15.9 kmh W 13.7 mph22.0 kmh 30.02 in1016.6 mb 0.00 in0.0 mm 0.00 in0.0 mm 0.00 in0.0 mm
01:25 AM 62.9°F17.2°C 54.5°F12.5°C 74% 10.0 mph W16.1 kmh W 15.8 mph25.4 kmh 30.02 in1016.6 mb 0.00 in0.0 mm 0.00 in0.0 mm 0.00 in0.0 mm
01:30 AM 62.9°F17.2°C 54.8°F12.7°C 75% 11.0 mph W17.7 kmh W 16.4 mph26.4 kmh 30.02 in1016.6 mb 0.00 in0.0 mm 0.00 in0.0 mm 0.00 in0.0 mm
01:35 AM 62.9°F17.2°C 54.8°F12.7°C 75% 11.4 mph WSW18.3 kmh WSW 16.4 mph26.4 kmh 30.02 in1016.6 mb 0.00 in0.0 mm 0.00 in0.0 mm 0.00 in0.0 mm
01:40 AM 62.9°F17.2°C 54.8°F12.7°C 75% 10.9 mph W17.5 kmh W 14.3 mph23.0 kmh 30.02 in1016.6 mb 0.00 in0.0 mm 0.00 in0.0 mm 0.00 in0.0 mm
01:45 AM 63.0°F17.2°C 55.4°F13.0°C 76% 8.5 mph W13.7 kmh W 13.1 mph21.1 kmh 30.02 in1016.6 mb 0.00 in0.0 mm 0.00 in0.0 mm 0.00 in0.0 mm
01:50 AM 63.0°F17.2°C 55.4°F13.0°C 76% 8.9 mph W14.3 kmh W 11.6 mph18.7 kmh 30.02 in1016.6 mb 0.00 in0.0 mm 0.00 in0.0 mm 0.00 in0.0 mm
01:55 AM 63.0°F17.2°C 55.4°F13.0°C 76% 10.9 mph W17.5 kmh W 16.1 mph25.9 kmh 30.02 in1016.6 mb 0.00 in0.0 mm 0.00 in0.0 mm 0.00 in0.0 mm
02:00 AM 63.2°F17.3°C 55.5°F13.1°C 76% 10.1 mph W16.3 kmh W 16.1 mph25.9 kmh 30.02 in1016.6 mb 0.00 in0.0 mm 0.00 in0.0 mm 0.00 in0.0 mm
02:05 AM 63.2°F17.3°C 55.9°F13.3°C 77% 9.3 mph W15.0 kmh W 16.1 mph25.9 kmh 30.02 in1016.6 mb 0.00 in0.0 mm 0.00 in0.0 mm 0.00 in0.0 mm
02:10 AM 63.2°F17.3°C 55.9°F13.3°C 77% 11.0 mph WSW17.7 kmh WSW 18.7 mph30.1 kmh 30.02 in1016.6 mb 0.00 in0.0 mm 0.00 in0.0 mm 0.00 in0.0 mm
02:15 AM 63.2°F17.3°C 55.9°F13.3°C 77% 9.3 mph WSW15.0 kmh WSW 18.7 mph30.1 kmh 30.02 in1016.6 mb 0.00 in0.0 mm 0.00 in0.0 mm 0.00 in0.0 mm
02:20 AM 63.2°F17.3°C 55.9°F13.3°C 77% 8.6 mph W13.8 kmh W 14.6 mph23.5 kmh 30.02 in1016.6 mb 0.00 in0.0 mm 0.00 in0.0 mm 0.00 in0.0 mm
02:25 AM 63.2°F17.3°C 55.9°F13.3°C 77% 9.3 mph W15.0 kmh W 16.4 mph26.4 kmh 30.02 in1016.6 mb 0.00 in0.0 mm 0.00 in0.0 mm 0.00 in0.0 mm
02:30 AM 63.2°F17.3°C 56.3°F13.5°C 78% 8.5 mph W13.7 kmh W 16.4 mph26.4 kmh 30.02 in1016.6 mb 0.00 in0.0 mm 0.00 in0.0 mm 0.00 in0.0 mm
02:35 AM 63.2°F17.3°C 56.6°F13.7°C 79% 7.3 mph WSW11.7 kmh WSW 8.6 mph13.8 kmh 30.02 in1016.6 mb 0.00 in0.0 mm 0.00 in0.0 mm 0.00 in0.0 mm
02:40 AM 63.2°F17.3°C 56.6°F13.7°C 79% 7.3 mph WSW11.7 kmh WSW 11.6 mph18.7 kmh 30.02 in1016.6 mb 0.00 in0.0 mm 0.00 in0.0 mm 0.00 in0.0 mm
02:45 AM 63.2°F17.3°C 56.6°F13.7°C 79% 6.5 mph W10.5 kmh W 11.6 mph18.7 kmh 30.02 in1016.6 mb 0.00 in0.0 mm 0.00 in0.0 mm 0.00 in0.0 mm
02:50 AM 63.2°F17.3°C 56.6°F13.7°C 79% 6.5 mph W10.5 kmh W 10.1 mph16.3 kmh 30.02 in1016.6 mb 0.00 in0.0 mm 0.00 in0.0 mm 0.00 in0.0 mm
02:55 AM 63.2°F17.3°C 57.0°F13.9°C 80% 7.2 mph W11.6 kmh W 10.1 mph16.3 kmh 30.02 in1016.6 mb 0.00 in0.0 mm 0.00 in0.0 mm 0.00 in0.0 mm
03:00 AM 63.2°F17.3°C 57.0°F13.9°C 80% 7.2 mph WSW11.6 kmh WSW 10.4 mph16.7 kmh 30.02 in1016.6 mb 0.00 in0.0 mm 0.00 in0.0 mm 0.00 in0.0 mm
03:05 AM 63.2°F17.3°C 57.0°F13.9°C 80% 8.2 mph WSW13.2 kmh WSW 11.6 mph18.7 kmh 30.02 in1016.6 mb 0.00 in0.0 mm 0.00 in0.0 mm 0.00 in0.0 mm
03:10 AM 63.2°F17.3°C 57.0°F13.9°C 80% 8.9 mph WSW14.3 kmh WSW 11.6 mph18.7 kmh 30.02 in1016.6 mb 0.00 in0.0 mm 0.00 in0.0 mm 0.00 in0.0 mm
03:15 AM 63.2°F17.3°C 57.0°F13.9°C 80% 9.0 mph W14.5 kmh W 11.3 mph18.2 kmh 30.02 in1016.6 mb 0.00 in0.0 mm 0.00 in0.0 mm 0.00 in0.0 mm
03:20 AM 63.0°F17.2°C 57.1°F13.9°C 81% 7.9 mph W12.7 kmh W 11.3 mph18.2 kmh 30.02 in1016.6 mb 0.00 in0.0 mm 0.00 in0.0 mm 0.00 in0.0 mm
03:25 AM 63.0°F17.2°C 57.1°F13.9°C 81% 7.4 mph W11.9 kmh W 13.4 mph21.6 kmh 30.02 in1016.6 mb 0.00 in0.0 mm 0.00 in0.0 mm 0.00 in0.0 mm
03:30 AM 63.0°F17.2°C 57.1°F13.9°C 81% 8.3 mph W13.4 kmh W 13.4 mph21.6 kmh 30.02 in1016.6 mb 0.00 in0.0 mm 0.00 in0.0 mm 0.00 in0.0 mm
03:35 AM 63.2°F17.3°C 57.3°F14.1°C 81% 8.0 mph W12.9 kmh W 12.8 mph20.6 kmh 30.02 in1016.6 mb 0.00 in0.0 mm 0.00 in0.0 mm 0.00 in0.0 mm
03:40 AM 63.2°F17.3°C 57.3°F14.1°C 81% 8.1 mph W13.0 kmh W 11.3 mph18.2 kmh 30.02 in1016.6 mb 0.00 in0.0 mm 0.00 in0.0 mm 0.00 in0.0 mm
03:45 AM 63.2°F17.3°C 57.3°F14.1°C 81% 7.8 mph W12.6 kmh W 11.3 mph18.2 kmh 30.02 in1016.6 mb 0.00 in0.0 mm 0.00 in0.0 mm 0.00 in0.0 mm
03:50 AM 63.4°F17.4°C 57.5°F14.2°C 81% 7.0 mph W11.3 kmh W 11.3 mph18.2 kmh 30.02 in1016.6 mb 0.00 in0.0 mm 0.00 in0.0 mm 0.00 in0.0 mm
03:55 AM 63.4°F17.4°C 57.5°F14.2°C 81% 8.7 mph W14.0 kmh W 14.3 mph23.0 kmh 30.02 in1016.6 mb 0.00 in0.0 mm 0.00 in0.0 mm 0.00 in0.0 mm
04:00 AM 63.6°F17.6°C 57.7°F14.3°C 81% 9.2 mph W14.8 kmh W 14.3 mph23.0 kmh 30.02 in1016.6 mb 0.00 in0.0 mm 0.00 in0.0 mm 0.00 in0.0 mm
04:05 AM 63.6°F17.6°C 57.7°F14.3°C 81% 8.5 mph W13.7 kmh W 13.1 mph21.1 kmh 30.02 in1016.6 mb 0.00 in0.0 mm 0.00 in0.0 mm 0.00 in0.0 mm
04:10 AM 63.6°F17.6°C 57.7°F14.3°C 81% 8.1 mph W13.0 kmh W 13.1 mph21.1 kmh 30.02 in1016.6 mb 0.00 in0.0 mm 0.00 in0.0 mm 0.00 in0.0 mm
04:15 AM 63.8°F17.7°C 57.5°F14.2°C 80% 7.7 mph W12.4 kmh W 10.4 mph16.7 kmh 30.02 in1016.6 mb 0.00 in0.0 mm 0.00 in0.0 mm 0.00 in0.0 mm
04:20 AM 63.8°F17.7°C 57.5°F14.2°C 80% 6.3 mph W10.1 kmh W 10.4 mph16.7 kmh 30.02 in1016.6 mb 0.00 in0.0 mm 0.00 in0.0 mm 0.00 in0.0 mm
04:25 AM 63.8°F17.7°C 57.5°F14.2°C 80% 5.0 mph WSW8.0 kmh WSW 7.4 mph11.9 kmh 30.02 in1016.6 mb 0.00 in0.0 mm 0.00 in0.0 mm 0.00 in0.0 mm
04:30 AM 63.6°F17.6°C 57.7°F14.3°C 81% 4.2 mph SW6.8 kmh SW 7.1 mph11.4 kmh 30.02 in1016.6 mb 0.00 in0.0 mm 0.00 in0.0 mm 0.00 in0.0 mm
04:35 AM 63.6°F17.6°C 57.7°F14.3°C 81% 3.4 mph WSW5.5 kmh WSW 7.0 mph11.3 kmh 30.02 in1016.6 mb 0.00 in0.0 mm 0.00 in0.0 mm 0.00 in0.0 mm
04:40 AM 63.6°F17.6°C 57.7°F14.3°C 81% 4.4 mph W7.1 kmh W 9.8 mph15.8 kmh 30.02 in1016.6 mb 0.00 in0.0 mm 0.00 in0.0 mm 0.00 in0.0 mm
04:45 AM 63.4°F17.4°C 57.5°F14.2°C 81% 4.1 mph W6.6 kmh W 9.8 mph15.8 kmh 30.02 in1016.6 mb 0.00 in0.0 mm 0.00 in0.0 mm 0.00 in0.0 mm
04:50 AM 63.2°F17.3°C 57.3°F14.1°C 81% 3.2 mph W5.1 kmh W 5.7 mph9.2 kmh 30.02 in1016.6 mb 0.00 in0.0 mm 0.00 in0.0 mm 0.00 in0.0 mm
04:55 AM 63.0°F17.2°C 57.5°F14.2°C 82% 3.4 mph W5.5 kmh W 5.7 mph9.2 kmh 30.02 in1016.6 mb 0.00 in0.0 mm 0.00 in0.0 mm 0.00 in0.0 mm
05:00 AM 63.0°F17.2°C 57.5°F14.2°C 82% 4.6 mph WSW7.4 kmh WSW 7.7 mph12.4 kmh 30.02 in1016.6 mb 0.00 in0.0 mm 0.00 in0.0 mm 0.00 in0.0 mm
05:05 AM 62.9°F17.2°C 57.6°F14.2°C 83% 7.0 mph WSW11.3 kmh WSW 10.1 mph16.3 kmh 30.02 in1016.6 mb 0.00 in0.0 mm 0.00 in0.0 mm 0.00 in0.0 mm
05:10 AM 62.9°F17.2°C 57.6°F14.2°C 83% 7.3 mph WSW11.7 kmh WSW 10.1 mph16.3 kmh 30.02 in1016.6 mb 0.00 in0.0 mm 0.00 in0.0 mm 0.00 in0.0 mm
05:15 AM 63.0°F17.2°C 57.8°F14.3°C 83% 8.5 mph WSW13.7 kmh WSW 11.3 mph18.2 kmh 30.02 in1016.6 mb 0.00 in0.0 mm 0.00 in0.0 mm 0.00 in0.0 mm
05:20 AM 63.2°F17.3°C 57.6°F14.2°C 82% 9.8 mph WSW15.8 kmh WSW 11.3 mph18.2 kmh 30.02 in1016.6 mb 0.00 in0.0 mm 0.00 in0.0 mm 0.00 in0.0 mm
05:25 AM 63.2°F17.3°C 57.6°F14.2°C 82% 8.5 mph W13.7 kmh W 16.4 mph26.4 kmh 30.02 in1016.6 mb 0.00 in0.0 mm 0.00 in0.0 mm 0.00 in0.0 mm
05:30 AM 63.4°F17.4°C 57.8°F14.3°C 82% 7.9 mph W12.7 kmh W 16.4 mph26.4 kmh 30.02 in1016.6 mb 0.00 in0.0 mm 0.00 in0.0 mm 0.00 in0.0 mm
05:35 AM 63.4°F17.4°C 57.8°F14.3°C 82% 7.9 mph WSW12.7 kmh WSW 10.4 mph16.7 kmh 30.02 in1016.6 mb 0.00 in0.0 mm 0.00 in0.0 mm 0.00 in0.0 mm
05:40 AM 63.6°F17.6°C 58.3°F14.6°C 83% 7.8 mph WSW12.6 kmh WSW 10.7 mph17.2 kmh 30.02 in1016.6 mb 0.00 in0.0 mm 0.00 in0.0 mm 0.00 in0.0 mm
05:45 AM 63.6°F17.6°C 58.0°F14.4°C 82% 9.7 mph W15.6 kmh W 16.7 mph26.9 kmh 30.02 in1016.6 mb 0.00 in0.0 mm 0.00 in0.0 mm 0.00 in0.0 mm
05:50 AM 63.8°F17.7°C 58.2°F14.6°C 82% 10.6 mph W17.1 kmh W 16.7 mph26.9 kmh 30.02 in1016.6 mb 0.00 in0.0 mm 0.00 in0.0 mm 0.00 in0.0 mm
05:55 AM 63.8°F17.7°C 58.2°F14.6°C 82% 9.5 mph W15.3 kmh W 13.1 mph21.1 kmh 30.02 in1016.6 mb 0.00 in0.0 mm 0.00 in0.0 mm 0.00 in0.0 mm
06:00 AM 63.8°F17.7°C 58.2°F14.6°C 82% 8.5 mph WSW13.7 kmh WSW 11.6 mph18.7 kmh 30.02 in1016.6 mb 0.00 in0.0 mm 0.00 in0.0 mm 0.00 in0.0 mm
06:05 AM 64.0°F17.8°C 58.3°F14.6°C 82% 7.2 mph WSW11.6 kmh WSW 11.6 mph18.7 kmh 30.02 in1016.6 mb 0.00 in0.0 mm 0.00 in0.0 mm 0.00 in0.0 mm
06:10 AM 63.8°F17.7°C 58.2°F14.6°C 82% 5.2 mph WSW8.4 kmh WSW 9.8 mph15.8 kmh 30.02 in1016.6 mb 0.00 in0.0 mm 0.00 in0.0 mm 0.00 in0.0 mm
06:15 AM 63.8°F17.7°C 58.2°F14.6°C 82% 5.2 mph WSW8.4 kmh WSW 7.7 mph12.4 kmh 30.02 in1016.6 mb 0.00 in0.0 mm 0.00 in0.0 mm 0.00 in0.0 mm
06:20 AM 63.8°F17.7°C 58.2°F14.6°C 82% 4.7 mph WSW7.6 kmh WSW 7.7 mph12.4 kmh 30.02 in1016.6 mb 0.00 in0.0 mm 0.00 in0.0 mm 0.00 in0.0 mm
06:25 AM 63.8°F17.7°C 58.2°F14.6°C 82% 4.3 mph SW6.9 kmh SW 8.6 mph13.8 kmh 30.02 in1016.6 mb 0.00 in0.0 mm 0.00 in0.0 mm 0.00 in0.0 mm
06:30 AM 63.8°F17.7°C 58.2°F14.6°C 82% 5.0 mph WSW8.0 kmh WSW 8.6 mph13.8 kmh 30.02 in1016.6 mb 0.00 in0.0 mm 0.00 in0.0 mm 0.00 in0.0 mm
06:35 AM 63.8°F17.7°C 58.2°F14.6°C 82% 5.6 mph WSW9.0 kmh WSW 8.6 mph13.8 kmh 30.02 in1016.6 mb 0.00 in0.0 mm 0.00 in0.0 mm 0.00 in0.0 mm
06:40 AM 63.8°F17.7°C 58.2°F14.6°C 82% 6.5 mph WSW10.5 kmh WSW 13.4 mph21.6 kmh 30.02 in1016.6 mb 0.00 in0.0 mm 0.00 in0.0 mm 0.00 in0.0 mm
06:45 AM 63.8°F17.7°C 58.2°F14.6°C 82% 6.2 mph WSW10.0 kmh WSW 13.4 mph21.6 kmh 30.02 in1016.6 mb 0.00 in0.0 mm 0.00 in0.0 mm 0.00 in0.0 mm
06:50 AM 63.8°F17.7°C 58.2°F14.6°C 82% 5.2 mph WSW8.4 kmh WSW 8.9 mph14.3 kmh 30.02 in1016.6 mb 0.00 in0.0 mm 0.00 in0.0 mm 0.00 in0.0 mm
06:55 AM 63.8°F17.7°C 58.2°F14.6°C 82% 5.4 mph SW8.7 kmh SW 8.9 mph14.3 kmh 30.02 in1016.6 mb 0.00 in0.0 mm 0.00 in0.0 mm 0.00 in0.0 mm
07:00 AM 63.8°F17.7°C 58.2°F14.6°C 82% 4.9 mph SW7.9 kmh SW 7.4 mph11.9 kmh 30.02 in1016.6 mb 0.00 in0.0 mm 0.00 in0.0 mm 0.00 in0.0 mm
07:05 AM 63.8°F17.7°C 58.2°F14.6°C 82% 3.9 mph SW6.3 kmh SW 7.4 mph11.9 kmh 30.02 in1016.6 mb 0.00 in0.0 mm 0.00 in0.0 mm 0.00 in0.0 mm
07:10 AM 63.8°F17.7°C 58.2°F14.6°C 82% 3.8 mph SW6.1 kmh SW 5.7 mph9.2 kmh 30.02 in1016.6 mb 0.00 in0.0 mm 0.00 in0.0 mm 0.00 in0.0 mm
07:15 AM 63.8°F17.7°C 58.2°F14.6°C 82% 4.7 mph SSW7.6 kmh SSW 7.1 mph11.4 kmh 30.02 in1016.6 mb 0.00 in0.0 mm 0.00 in0.0 mm 0.00 in0.0 mm
07:20 AM 64.0°F17.8°C 58.3°F14.6°C 82% 5.1 mph SW8.2 kmh SW 7.1 mph11.4 kmh 30.02 in1016.6 mb 0.00 in0.0 mm 0.00 in0.0 mm 0.00 in0.0 mm
07:25 AM 64.0°F17.8°C 58.3°F14.6°C 82% 4.9 mph WSW7.9 kmh WSW 7.7 mph12.4 kmh 30.02 in1016.6 mb 0.00 in0.0 mm 0.00 in0.0 mm 0.00 in0.0 mm
07:30 AM 64.1°F17.8°C 58.5°F14.7°C 82% 5.4 mph WSW8.7 kmh WSW 8.0 mph12.9 kmh 30.02 in1016.6 mb 0.00 in0.0 mm 0.00 in0.0 mm 0.00 in0.0 mm
07:35 AM 64.3°F17.9°C 58.7°F14.8°C 82% 5.8 mph SW9.3 kmh SW 8.6 mph13.8 kmh 30.02 in1016.6 mb 0.00 in0.0 mm 0.00 in0.0 mm 0.00 in0.0 mm
07:40 AM 64.3°F17.9°C 58.7°F14.8°C 82% 5.9 mph WSW9.5 kmh WSW 8.6 mph13.8 kmh 30.02 in1016.6 mb 0.00 in0.0 mm 0.00 in0.0 mm 0.00 in0.0 mm
07:45 AM 64.5°F18.1°C 58.9°F14.9°C 82% 5.9 mph WSW9.5 kmh WSW 8.0 mph12.9 kmh 30.02 in1016.6 mb 0.00 in0.0 mm 0.00 in0.0 mm 0.00 in0.0 mm
07:50 AM 64.7°F18.2°C 59.0°F15.0°C 82% 5.9 mph WSW9.5 kmh WSW 8.0 mph12.9 kmh 30.02 in1016.6 mb 0.00 in0.0 mm 0.00 in0.0 mm 0.00 in0.0 mm
07:55 AM 64.7°F18.2°C 59.0°F15.0°C 82% 6.3 mph WSW10.1 kmh WSW 8.3 mph13.4 kmh 30.02 in1016.6 mb 0.00 in0.0 mm 0.00 in0.0 mm 0.00 in0.0 mm
08:00 AM 64.7°F18.2°C 59.0°F15.0°C 82% 7.7 mph SW12.4 kmh SW 9.8 mph15.8 kmh 30.02 in1016.6 mb 0.00 in0.0 mm 0.00 in0.0 mm 0.00 in0.0 mm
08:05 AM 64.7°F18.2°C 59.0°F15.0°C 82% 8.5 mph WSW13.7 kmh WSW 13.4 mph21.6 kmh 30.02 in1016.6 mb 0.00 in0.0 mm 0.00 in0.0 mm 0.00 in0.0 mm
08:10 AM 64.3°F17.9°C 58.7°F14.8°C 82% 10.4 mph WSW16.7 kmh WSW 14.3 mph23.0 kmh 30.02 in1016.6 mb 0.00 in0.0 mm 0.00 in0.0 mm 0.00 in0.0 mm
08:15 AM 64.1°F17.8°C 58.9°F14.9°C 83% 9.7 mph WSW15.6 kmh WSW 14.3 mph23.0 kmh 30.02 in1016.6 mb 0.00 in0.0 mm 0.00 in0.0 mm 0.00 in0.0 mm
08:20 AM 64.0°F17.8°C 58.7°F14.8°C 83% 7.6 mph WSW12.2 kmh WSW 10.4 mph16.7 kmh 30.02 in1016.6 mb 0.00 in0.0 mm 0.00 in0.0 mm 0.00 in0.0 mm
08:25 AM 64.0°F17.8°C 59.0°F15.0°C 84% 7.1 mph SW11.4 kmh SW 10.4 mph16.7 kmh 30.02 in1016.6 mb 0.00 in0.0 mm 0.00 in0.0 mm 0.00 in0.0 mm
08:30 AM 63.8°F17.7°C 58.8°F14.9°C 84% 6.4 mph WSW10.3 kmh WSW 9.8 mph15.8 kmh 30.02 in1016.6 mb 0.00 in0.0 mm 0.00 in0.0 mm 0.00 in0.0 mm
08:35 AM 64.0°F17.8°C 59.3°F15.2°C 85% 5.7 mph WSW9.2 kmh WSW 9.8 mph15.8 kmh 30.02 in1016.6 mb 0.00 in0.0 mm 0.00 in0.0 mm 0.00 in0.0 mm
08:40 AM 64.0°F17.8°C 59.3°F15.2°C 85% 6.1 mph WSW9.8 kmh WSW 11.3 mph18.2 kmh 30.02 in1016.6 mb 0.00 in0.0 mm 0.00 in0.0 mm 0.00 in0.0 mm
08:45 AM 63.6°F17.6°C 59.0°F15.0°C 85% 8.0 mph WSW12.9 kmh WSW 11.3 mph18.2 kmh 30.02 in1016.6 mb 0.00 in0.0 mm 0.00 in0.0 mm 0.00 in0.0 mm
08:50 AM 63.4°F17.4°C 58.8°F14.9°C 85% 7.6 mph W12.2 kmh W 10.7 mph17.2 kmh 30.02 in1016.6 mb 0.00 in0.0 mm 0.00 in0.0 mm 0.00 in0.0 mm
08:55 AM 63.6°F17.6°C 59.3°F15.2°C 86% 6.7 mph W10.8 kmh W 9.8 mph15.8 kmh 30.02 in1016.6 mb 0.00 in0.0 mm 0.00 in0.0 mm 0.00 in0.0 mm
09:00 AM 63.6°F17.6°C 59.6°F15.3°C 87% 6.5 mph WSW10.5 kmh WSW 9.5 mph15.3 kmh 30.02 in1016.6 mb 0.00 in0.0 mm 0.00 in0.0 mm 0.00 in0.0 mm
09:05 AM 63.8°F17.7°C 59.8°F15.4°C 87% 6.0 mph WSW9.7 kmh WSW 7.4 mph11.9 kmh 30.02 in1016.6 mb 0.00 in0.0 mm 0.00 in0.0 mm 0.00 in0.0 mm
09:10 AM 64.0°F17.8°C 60.0°F15.6°C 87% 5.6 mph WSW9.0 kmh WSW 7.1 mph11.4 kmh 30.02 in1016.6 mb 0.00 in0.0 mm 0.00 in0.0 mm 0.00 in0.0 mm
09:15 AM 64.3°F17.9°C 60.4°F15.8°C 87% 6.2 mph WSW10.0 kmh WSW 12.8 mph20.6 kmh 30.02 in1016.6 mb 0.00 in0.0 mm 0.00 in0.0 mm 0.00 in0.0 mm
09:20 AM 64.5°F18.1°C 60.5°F15.8°C 87% 8.5 mph WSW13.7 kmh WSW 12.8 mph20.6 kmh 30.02 in1016.6 mb 0.00 in0.0 mm 0.00 in0.0 mm 0.00 in0.0 mm
09:25 AM 64.7°F18.2°C 60.7°F15.9°C 87% 8.5 mph SW13.7 kmh SW 11.3 mph18.2 kmh 30.02 in1016.6 mb 0.00 in0.0 mm 0.00 in0.0 mm 0.00 in0.0 mm
09:30 AM 64.8°F18.2°C 60.9°F16.1°C 87% 6.6 mph SW10.6 kmh SW 10.4 mph16.7 kmh 30.02 in1016.6 mb 0.00 in0.0 mm 0.00 in0.0 mm 0.00 in0.0 mm
09:35 AM 65.2°F18.4°C 60.9°F16.1°C 86% 6.6 mph WSW10.6 kmh WSW 12.8 mph20.6 kmh 30.02 in1016.6 mb 0.00 in0.0 mm 0.00 in0.0 mm 0.00 in0.0 mm
09:40 AM 65.4°F18.6°C 60.8°F16.0°C 85% 8.6 mph WSW13.8 kmh WSW 12.8 mph20.6 kmh 30.02 in1016.6 mb 0.00 in0.0 mm 0.00 in0.0 mm 0.00 in0.0 mm
09:45 AM 65.4°F18.6°C 60.4°F15.8°C 84% 9.8 mph WSW15.8 kmh WSW 12.8 mph20.6 kmh 30.02 in1016.6 mb 0.00 in0.0 mm 0.00 in0.0 mm 0.00 in0.0 mm
09:50 AM 65.9°F18.8°C 61.0°F16.1°C 84% 8.8 mph WSW14.2 kmh WSW 10.7 mph17.2 kmh 30.02 in1016.6 mb 0.00 in0.0 mm 0.00 in0.0 mm 0.00 in0.0 mm
09:55 AM 66.1°F18.9°C 61.1°F16.2°C 84% 7.7 mph WSW12.4 kmh WSW 13.7 mph22.0 kmh 30.02 in1016.6 mb 0.00 in0.0 mm 0.00 in0.0 mm 0.00 in0.0 mm
10:00 AM 66.3°F19.1°C 61.0°F16.1°C 83% 8.7 mph WSW14.0 kmh WSW 13.7 mph22.0 kmh 30.02 in1016.6 mb 0.00 in0.0 mm 0.00 in0.0 mm 0.00 in0.0 mm
10:05 AM 66.5°F19.2°C 60.8°F16.0°C 82% 11.2 mph WSW18.0 kmh WSW 15.8 mph25.4 kmh 30.05 in1017.6 mb 0.00 in0.0 mm 0.00 in0.0 mm 0.00 in0.0 mm
10:10 AM 66.7°F19.3°C 61.0°F16.1°C 82% 12.1 mph WSW19.5 kmh WSW 15.8 mph25.4 kmh 30.05 in1017.6 mb 0.00 in0.0 mm 0.00 in0.0 mm 0.00 in0.0 mm
10:15 AM 66.8°F19.3°C 60.8°F16.0°C 81% 10.6 mph WSW17.1 kmh WSW 14.9 mph24.0 kmh 30.05 in1017.6 mb 0.00 in0.0 mm 0.00 in0.0 mm 0.00 in0.0 mm
10:20 AM 67.0°F19.4°C 61.0°F16.1°C 81% 8.5 mph WSW13.7 kmh WSW 13.4 mph21.6 kmh 30.02 in1016.6 mb 0.00 in0.0 mm 0.00 in0.0 mm 0.00 in0.0 mm
10:25 AM 67.2°F19.6°C 61.2°F16.2°C 81% 8.7 mph WSW14.0 kmh WSW 10.4 mph16.7 kmh 30.02 in1016.6 mb 0.00 in0.0 mm 0.00 in0.0 mm 0.00 in0.0 mm
10:30 AM 67.7°F19.8°C 61.3°F16.3°C 80% 9.0 mph W14.5 kmh W 10.4 mph16.7 kmh 30.02 in1016.6 mb 0.00 in0.0 mm 0.00 in0.0 mm 0.00 in0.0 mm
10:35 AM 67.9°F19.9°C 61.5°F16.4°C 80% 8.7 mph W14.0 kmh W 10.4 mph16.7 kmh 30.02 in1016.6 mb 0.00 in0.0 mm 0.00 in0.0 mm 0.00 in0.0 mm
10:40 AM 68.1°F20.1°C 61.3°F16.3°C 79% 8.6 mph WSW13.8 kmh WSW 13.1 mph21.1 kmh 30.02 in1016.6 mb 0.00 in0.0 mm 0.00 in0.0 mm 0.00 in0.0 mm
10:45 AM 68.4°F20.2°C 61.7°F16.5°C 79% 9.4 mph WSW15.1 kmh WSW 13.1 mph21.1 kmh 30.02 in1016.6 mb 0.00 in0.0 mm 0.00 in0.0 mm 0.00 in0.0 mm
10:50 AM 68.4°F20.2°C 61.3°F16.3°C 78% 9.3 mph WSW15.0 kmh WSW 16.7 mph26.9 kmh 30.02 in1016.6 mb 0.00 in0.0 mm 0.00 in0.0 mm 0.00 in0.0 mm
10:55 AM 68.6°F20.3°C 61.1°F16.2°C 77% 8.6 mph WSW13.8 kmh WSW 16.7 mph26.9 kmh 30.02 in1016.6 mb 0.00 in0.0 mm 0.00 in0.0 mm 0.00 in0.0 mm
11:00 AM 68.8°F20.4°C 60.9°F16.1°C 76% 8.5 mph W13.7 kmh W 14.6 mph23.5 kmh 30.02 in1016.6 mb 0.00 in0.0 mm 0.00 in0.0 mm 0.00 in0.0 mm
11:05 AM 68.8°F20.4°C 60.6°F15.9°C 75% 8.8 mph WSW14.2 kmh WSW 14.3 mph23.0 kmh 30.05 in1017.6 mb 0.00 in0.0 mm 0.00 in0.0 mm 0.00 in0.0 mm
11:10 AM 68.6°F20.3°C 60.0°F15.6°C 74% 9.7 mph WSW15.6 kmh WSW 14.3 mph23.0 kmh 30.05 in1017.6 mb 0.00 in0.0 mm 0.00 in0.0 mm 0.00 in0.0 mm
11:15 AM 68.6°F20.3°C 59.6°F15.3°C 73% 9.3 mph WSW15.0 kmh WSW 14.6 mph23.5 kmh 30.05 in1017.6 mb 0.00 in0.0 mm 0.00 in0.0 mm 0.00 in0.0 mm
11:20 AM 68.8°F20.4°C 59.8°F15.4°C 73% 9.4 mph WSW15.1 kmh WSW 15.2 mph24.5 kmh 30.05 in1017.6 mb 0.00 in0.0 mm 0.00 in0.0 mm 0.00 in0.0 mm
11:25 AM 68.8°F20.4°C 59.4°F15.2°C 72% 9.6 mph W15.4 kmh W 15.2 mph24.5 kmh 30.05 in1017.6 mb 0.00 in0.0 mm 0.00 in0.0 mm 0.00 in0.0 mm
11:30 AM 68.8°F20.4°C 59.8°F15.4°C 73% 9.5 mph W15.3 kmh W 15.2 mph24.5 kmh 30.05 in1017.6 mb 0.00 in0.0 mm 0.00 in0.0 mm 0.00 in0.0 mm
11:35 AM 69.0°F20.6°C 59.6°F15.3°C 72% 8.1 mph WSW13.0 kmh WSW 11.6 mph18.7 kmh 30.02 in1016.6 mb 0.00 in0.0 mm 0.00 in0.0 mm 0.00 in0.0 mm
11:40 AM 69.0°F20.6°C 59.6°F15.3°C 72% 8.4 mph WSW13.5 kmh WSW 11.6 mph18.7 kmh 30.02 in1016.6 mb 0.00 in0.0 mm 0.00 in0.0 mm 0.00 in0.0 mm
11:45 AM 69.2°F20.7°C 59.4°F15.2°C 71% 7.4 mph WSW11.9 kmh WSW 11.3 mph18.2 kmh 30.02 in1016.6 mb 0.00 in0.0 mm 0.00 in0.0 mm 0.00 in0.0 mm
11:50 AM 69.2°F20.7°C 59.4°F15.2°C 71% 7.4 mph W11.9 kmh W 11.6 mph18.7 kmh 30.02 in1016.6 mb 0.00 in0.0 mm 0.00 in0.0 mm 0.00 in0.0 mm
11:55 AM 69.3°F20.7°C 59.5°F15.3°C 71% 7.8 mph WSW12.6 kmh WSW 11.6 mph18.7 kmh 30.02 in1016.6 mb 0.00 in0.0 mm 0.00 in0.0 mm 0.00 in0.0 mm
12:00 PM 69.7°F20.9°C 59.5°F15.3°C 70% 6.0 mph SW9.7 kmh SW 10.1 mph16.3 kmh 30.02 in1016.6 mb 0.00 in0.0 mm 0.00 in0.0 mm 0.00 in0.0 mm
12:05 PM 69.9°F21.1°C 59.7°F15.4°C 70% 6.8 mph W10.9 kmh W 12.8 mph20.6 kmh 30.02 in1016.6 mb 0.00 in0.0 mm 0.00 in0.0 mm 0.00 in0.0 mm
12:10 PM 70.1°F21.2°C 59.4°F15.2°C 69% 7.7 mph W12.4 kmh W 12.8 mph20.6 kmh 30.02 in1016.6 mb 0.00 in0.0 mm 0.00 in0.0 mm 0.00 in0.0 mm
12:15 PM 70.1°F21.2°C 59.4°F15.2°C 69% 8.6 mph W13.8 kmh W 12.8 mph20.6 kmh 30.02 in1016.6 mb 0.00 in0.0 mm 0.00 in0.0 mm 0.00 in0.0 mm
12:20 PM 70.1°F21.2°C 59.0°F15.0°C 68% 8.6 mph WSW13.8 kmh WSW 11.6 mph18.7 kmh 30.02 in1016.6 mb 0.00 in0.0 mm 0.00 in0.0 mm 0.00 in0.0 mm
12:25 PM 70.1°F21.2°C 59.0°F15.0°C 68% 7.8 mph WSW12.6 kmh WSW 11.6 mph18.7 kmh 30.02 in1016.6 mb 0.00 in0.0 mm 0.00 in0.0 mm 0.00 in0.0 mm
12:30 PM 70.1°F21.2°C 59.0°F15.0°C 68% 6.2 mph WSW10.0 kmh WSW 10.1 mph16.3 kmh 30.02 in1016.6 mb 0.00 in0.0 mm 0.00 in0.0 mm 0.00 in0.0 mm
12:35 PM 70.1°F21.2°C 58.6°F14.8°C 67% 5.7 mph SW9.2 kmh SW 8.6 mph13.8 kmh 30.02 in1016.6 mb 0.00 in0.0 mm 0.00 in0.0 mm 0.00 in0.0 mm
12:40 PM 70.3°F21.3°C 58.8°F14.9°C 67% 6.4 mph SW10.3 kmh SW 9.8 mph15.8 kmh 30.02 in1016.6 mb 0.00 in0.0 mm 0.00 in0.0 mm 0.00 in0.0 mm
12:45 PM 70.4°F21.3°C 58.9°F14.9°C 67% 6.7 mph SW10.8 kmh SW 11.6 mph18.7 kmh 30.02 in1016.6 mb 0.00 in0.0 mm 0.00 in0.0 mm 0.00 in0.0 mm
12:50 PM 70.8°F21.6°C 59.3°F15.2°C 67% 8.4 mph WSW13.5 kmh WSW 14.0 mph22.5 kmh 30.02 in1016.6 mb 0.00 in0.0 mm 0.00 in0.0 mm 0.00 in0.0 mm
12:55 PM 71.2°F21.8°C 59.2°F15.1°C 66% 7.5 mph WSW12.1 kmh WSW 14.0 mph22.5 kmh 30.02 in1016.6 mb 0.00 in0.0 mm 0.00 in0.0 mm 0.00 in0.0 mm
01:00 PM 71.2°F21.8°C 58.8°F14.9°C 65% 6.5 mph WSW10.5 kmh WSW 10.7 mph17.2 kmh 30.02 in1016.6 mb 0.00 in0.0 mm 0.00 in0.0 mm 0.00 in0.0 mm
01:05 PM 71.2°F21.8°C 58.8°F14.9°C 65% 8.8 mph WSW14.2 kmh WSW 16.4 mph26.4 kmh 30.02 in1016.6 mb 0.00 in0.0 mm 0.00 in0.0 mm 0.00 in0.0 mm
01:10 PM 71.2°F21.8°C 58.8°F14.9°C 65% 9.2 mph W14.8 kmh W 16.4 mph26.4 kmh 30.02 in1016.6 mb 0.00 in0.0 mm 0.00 in0.0 mm 0.00 in0.0 mm
01:15 PM 71.2°F21.8°C 58.8°F14.9°C 65% 7.9 mph WSW12.7 kmh WSW 14.6 mph23.5 kmh 30.02 in1016.6 mb 0.00 in0.0 mm 0.00 in0.0 mm 0.00 in0.0 mm
01:20 PM 71.0°F21.7°C 58.2°F14.6°C 64% 9.1 mph WSW14.6 kmh WSW 14.6 mph23.5 kmh 30.02 in1016.6 mb 0.00 in0.0 mm 0.00 in0.0 mm 0.00 in0.0 mm
01:25 PM 70.8°F21.6°C 58.0°F14.4°C 64% 9.1 mph W14.6 kmh W 14.0 mph22.5 kmh 30.02 in1016.6 mb 0.00 in0.0 mm 0.00 in0.0 mm 0.00 in0.0 mm
01:30 PM 70.4°F21.3°C 57.7°F14.3°C 64% 7.7 mph W12.4 kmh W 10.7 mph17.2 kmh 30.02 in1016.6 mb 0.00 in0.0 mm 0.00 in0.0 mm 0.00 in0.0 mm
01:35 PM 70.4°F21.3°C 57.7°F14.3°C 64% 7.8 mph WSW12.6 kmh WSW 14.3 mph23.0 kmh 30.02 in1016.6 mb 0.00 in0.0 mm 0.00 in0.0 mm 0.00 in0.0 mm
01:40 PM 70.3°F21.3°C 57.9°F14.4°C 65% 8.6 mph WSW13.8 kmh WSW 14.3 mph23.0 kmh 30.02 in1016.6 mb 0.00 in0.0 mm 0.00 in0.0 mm 0.00 in0.0 mm
01:45 PM 70.1°F21.2°C 57.8°F14.3°C 65% 8.4 mph WSW13.5 kmh WSW 11.3 mph18.2 kmh 30.02 in1016.6 mb 0.00 in0.0 mm 0.00 in0.0 mm 0.00 in0.0 mm
01:50 PM 69.9°F21.1°C 57.6°F14.2°C 65% 9.6 mph WSW15.4 kmh WSW 17.3 mph27.8 kmh 30.02 in1016.6 mb 0.00 in0.0 mm 0.00 in0.0 mm 0.00 in0.0 mm
01:55 PM 70.1°F21.2°C 57.8°F14.3°C 65% 11.7 mph WSW18.8 kmh WSW 17.3 mph27.8 kmh 30.02 in1016.6 mb 0.00 in0.0 mm 0.00 in0.0 mm 0.00 in0.0 mm
02:00 PM 70.3°F21.3°C 58.4°F14.7°C 66% 10.6 mph WSW17.1 kmh WSW 17.0 mph27.4 kmh 30.02 in1016.6 mb 0.00 in0.0 mm 0.00 in0.0 mm 0.00 in0.0 mm
02:05 PM 70.8°F21.6°C 59.3°F15.2°C 67% 8.7 mph W14.0 kmh W 16.4 mph26.4 kmh 30.02 in1016.6 mb 0.00 in0.0 mm 0.00 in0.0 mm 0.00 in0.0 mm
02:10 PM 71.7°F22.1°C 60.1°F15.6°C 67% 7.5 mph W12.1 kmh W 11.6 mph18.7 kmh 30.02 in1016.6 mb 0.00 in0.0 mm 0.00 in0.0 mm 0.00 in0.0 mm
02:15 PM 72.1°F22.3°C 60.5°F15.8°C 67% 6.8 mph W10.9 kmh W 10.7 mph17.2 kmh 30.02 in1016.6 mb 0.00 in0.0 mm 0.00 in0.0 mm 0.00 in0.0 mm
02:20 PM 72.4°F22.4°C 60.8°F16.0°C 67% 6.9 mph W11.1 kmh W 10.7 mph17.2 kmh 30.02 in1016.6 mb 0.00 in0.0 mm 0.00 in0.0 mm 0.00 in0.0 mm
02:25 PM 73.3°F22.9°C 61.3°F16.3°C 66% 6.2 mph NW10.0 kmh NW 9.8 mph15.8 kmh 30.02 in1016.6 mb 0.00 in0.0 mm 0.00 in0.0 mm 0.00 in0.0 mm
02:30 PM 73.7°F23.2°C 61.6°F16.4°C 66% 6.4 mph WNW10.3 kmh WNW 13.4 mph21.6 kmh 30.02 in1016.6 mb 0.00 in0.0 mm 0.00 in0.0 mm 0.00 in0.0 mm
02:35 PM 73.5°F23.1°C 61.4°F16.3°C 66% 7.1 mph W11.4 kmh W 13.4 mph21.6 kmh 30.02 in1016.6 mb 0.00 in0.0 mm 0.00 in0.0 mm 0.00 in0.0 mm
02:40 PM 73.1°F22.8°C 60.7°F15.9°C 65% 5.8 mph WSW9.3 kmh WSW 8.6 mph13.8 kmh 30.02 in1016.6 mb 0.00 in0.0 mm 0.00 in0.0 mm 0.00 in0.0 mm
02:45 PM 72.8°F22.7°C 60.7°F15.9°C 66% 7.7 mph WSW12.4 kmh WSW 14.3 mph23.0 kmh 30.02 in1016.6 mb 0.00 in0.0 mm 0.00 in0.0 mm 0.00 in0.0 mm
02:50 PM 72.8°F22.7°C 60.7°F15.9°C 66% 9.1 mph WSW14.6 kmh WSW 14.3 mph23.0 kmh 30.02 in1016.6 mb 0.00 in0.0 mm 0.00 in0.0 mm 0.00 in0.0 mm
02:55 PM 73.1°F22.8°C 61.1°F16.2°C 66% 6.3 mph W10.1 kmh W 12.8 mph20.6 kmh 30.02 in1016.6 mb 0.00 in0.0 mm 0.00 in0.0 mm 0.00 in0.0 mm
03:00 PM 73.3°F22.9°C 60.8°F16.0°C 65% 6.1 mph W9.8 kmh W 11.3 mph18.2 kmh 30.02 in1016.6 mb 0.00 in0.0 mm 0.00 in0.0 mm 0.00 in0.0 mm
03:05 PM 72.8°F22.7°C 60.3°F15.7°C 65% 8.0 mph W12.9 kmh W 16.4 mph26.4 kmh 30.02 in1016.6 mb 0.00 in0.0 mm 0.00 in0.0 mm 0.00 in0.0 mm
03:10 PM 72.2°F22.3°C 59.8°F15.4°C 65% 7.8 mph W12.6 kmh W 16.7 mph26.9 kmh 29.99 in1015.6 mb 0.00 in0.0 mm 0.00 in0.0 mm 0.00 in0.0 mm
03:15 PM 71.7°F22.1°C 59.3°F15.2°C 65% 7.1 mph W11.4 kmh W 16.7 mph26.9 kmh 29.99 in1015.6 mb 0.00 in0.0 mm 0.00 in0.0 mm 0.00 in0.0 mm
03:20 PM 71.3°F21.8°C 59.0°F15.0°C 65% 7.7 mph W12.4 kmh W 12.8 mph20.6 kmh 29.99 in1015.6 mb 0.00 in0.0 mm 0.00 in0.0 mm 0.00 in0.0 mm
03:25 PM 71.2°F21.8°C 58.8°F14.9°C 65% 7.2 mph W11.6 kmh W 12.8 mph20.6 kmh 29.99 in1015.6 mb 0.00 in0.0 mm 0.00 in0.0 mm 0.00 in0.0 mm
03:30 PM 71.0°F21.7°C 58.6°F14.8°C 65% 6.6 mph W10.6 kmh W 10.4 mph16.7 kmh 29.99 in1015.6 mb 0.00 in0.0 mm 0.00 in0.0 mm 0.00 in0.0 mm
03:35 PM 70.8°F21.6°C 58.9°F14.9°C 66% 7.1 mph W11.4 kmh W 13.1 mph21.1 kmh 29.99 in1015.6 mb 0.00 in0.0 mm 0.00 in0.0 mm 0.00 in0.0 mm
03:40 PM 70.8°F21.6°C 58.9°F14.9°C 66% 7.5 mph W12.1 kmh W 13.1 mph21.1 kmh 29.99 in1015.6 mb 0.00 in0.0 mm 0.00 in0.0 mm 0.00 in0.0 mm
03:45 PM 71.0°F21.7°C 59.0°F15.0°C 66% 6.9 mph W11.1 kmh W 11.6 mph18.7 kmh 29.99 in1015.6 mb 0.00 in0.0 mm 0.00 in0.0 mm 0.00 in0.0 mm
03:50 PM 71.0°F21.7°C 59.0°F15.0°C 66% 7.9 mph W12.7 kmh W 15.2 mph24.5 kmh 29.99 in1015.6 mb 0.00 in0.0 mm 0.00 in0.0 mm 0.00 in0.0 mm
03:55 PM 70.4°F21.3°C 58.5°F14.7°C 66% 8.8 mph W14.2 kmh W 15.2 mph24.5 kmh 29.99 in1015.6 mb 0.00 in0.0 mm 0.00 in0.0 mm 0.00 in0.0 mm
04:00 PM 70.4°F21.3°C 58.9°F14.9°C 67% 8.9 mph NW14.3 kmh NW 13.7 mph22.0 kmh 29.99 in1015.6 mb 0.00 in0.0 mm 0.00 in0.0 mm 0.00 in0.0 mm
04:05 PM 70.6°F21.4°C 59.1°F15.1°C 67% 8.6 mph W13.8 kmh W 13.7 mph22.0 kmh 29.99 in1015.6 mb 0.00 in0.0 mm 0.00 in0.0 mm 0.00 in0.0 mm
04:10 PM 70.6°F21.4°C 59.1°F15.1°C 67% 7.3 mph W11.7 kmh W 11.3 mph18.2 kmh 29.99 in1015.6 mb 0.00 in0.0 mm 0.00 in0.0 mm 0.00 in0.0 mm
04:15 PM 70.3°F21.3°C 59.2°F15.1°C 68% 6.7 mph W10.8 kmh W 11.3 mph18.2 kmh 29.99 in1015.6 mb 0.00 in0.0 mm 0.00 in0.0 mm 0.00 in0.0 mm
04:20 PM 70.1°F21.2°C 59.0°F15.0°C 68% 6.2 mph W10.0 kmh W 10.7 mph17.2 kmh 29.99 in1015.6 mb 0.00 in0.0 mm 0.00 in0.0 mm 0.00 in0.0 mm
04:25 PM 69.9°F21.1°C 59.3°F15.2°C 69% 5.8 mph W9.3 kmh W 10.7 mph17.2 kmh 29.99 in1015.6 mb 0.00 in0.0 mm 0.00 in0.0 mm 0.00 in0.0 mm
04:30 PM 69.5°F20.8°C 58.9°F14.9°C 69% 5.9 mph W9.5 kmh W 11.3 mph18.2 kmh 29.99 in1015.6 mb 0.00 in0.0 mm 0.00 in0.0 mm 0.00 in0.0 mm
04:35 PM 69.3°F20.7°C 58.7°F14.8°C 69% 8.5 mph W13.7 kmh W 12.5 mph20.1 kmh 29.99 in1015.6 mb 0.00 in0.0 mm 0.00 in0.0 mm 0.00 in0.0 mm
04:40 PM 68.8°F20.4°C 58.2°F14.6°C 69% 8.8 mph W14.2 kmh W 12.5 mph20.1 kmh 29.99 in1015.6 mb 0.00 in0.0 mm 0.00 in0.0 mm 0.00 in0.0 mm
04:45 PM 68.4°F20.2°C 58.3°F14.6°C 70% 7.6 mph W12.2 kmh W 10.1 mph16.3 kmh 29.99 in1015.6 mb 0.00 in0.0 mm 0.00 in0.0 mm 0.00 in0.0 mm
04:50 PM 68.3°F20.2°C 58.5°F14.7°C 71% 7.1 mph WSW11.4 kmh WSW 13.7 mph22.0 kmh 29.99 in1015.6 mb 0.00 in0.0 mm 0.00 in0.0 mm 0.00 in0.0 mm
04:55 PM 68.3°F20.2°C 58.5°F14.7°C 71% 7.4 mph WSW11.9 kmh WSW 13.7 mph22.0 kmh 29.99 in1015.6 mb 0.00 in0.0 mm 0.00 in0.0 mm 0.00 in0.0 mm
05:00 PM 68.3°F20.2°C 58.5°F14.7°C 71% 7.6 mph WSW12.2 kmh WSW 11.3 mph18.2 kmh 29.99 in1015.6 mb 0.00 in0.0 mm 0.00 in0.0 mm 0.00 in0.0 mm
05:05 PM 67.9°F19.9°C 58.2°F14.6°C 71% 7.1 mph WNW11.4 kmh WNW 10.4 mph16.7 kmh 29.96 in1014.6 mb 0.00 in0.0 mm 0.00 in0.0 mm 0.00 in0.0 mm
05:10 PM 67.9°F19.9°C 58.5°F14.7°C 72% 6.8 mph W10.9 kmh W 10.4 mph16.7 kmh 29.96 in1014.6 mb 0.00 in0.0 mm 0.00 in0.0 mm 0.00 in0.0 mm
05:15 PM 67.7°F19.8°C 58.4°F14.7°C 72% 6.9 mph WSW11.1 kmh WSW 10.4 mph16.7 kmh 29.96 in1014.6 mb 0.00 in0.0 mm 0.00 in0.0 mm 0.00 in0.0 mm
05:20 PM 67.7°F19.8°C 58.4°F14.7°C 72% 6.0 mph W9.7 kmh W 7.7 mph12.4 kmh 29.96 in1014.6 mb 0.00 in0.0 mm 0.00 in0.0 mm 0.00 in0.0 mm
05:25 PM 67.7°F19.8°C 58.8°F14.9°C 73% 5.7 mph WSW9.2 kmh WSW 7.7 mph12.4 kmh 29.96 in1014.6 mb 0.00 in0.0 mm 0.00 in0.0 mm 0.00 in0.0 mm
05:30 PM 67.7°F19.8°C 58.8°F14.9°C 73% 4.5 mph WSW7.2 kmh WSW 7.4 mph11.9 kmh 29.96 in1014.6 mb 0.00 in0.0 mm 0.00 in0.0 mm 0.00 in0.0 mm
05:35 PM 67.7°F19.8°C 58.8°F14.9°C 73% 4.0 mph WSW6.4 kmh WSW 5.4 mph8.7 kmh 29.96 in1014.6 mb 0.00 in0.0 mm 0.00 in0.0 mm 0.00 in0.0 mm
05:40 PM 67.7°F19.8°C 59.1°F15.1°C 74% 3.2 mph WSW5.1 kmh WSW 5.4 mph8.7 kmh 29.96 in1014.6 mb 0.00 in0.0 mm 0.00 in0.0 mm 0.00 in0.0 mm
05:45 PM 67.7°F19.8°C 59.1°F15.1°C 74% 2.6 mph WSW4.2 kmh WSW 4.2 mph6.8 kmh 29.96 in1014.6 mb 0.00 in0.0 mm 0.00 in0.0 mm 0.00 in0.0 mm
05:50 PM 67.7°F19.8°C 58.8°F14.9°C 73% 4.6 mph WSW7.4 kmh WSW 8.3 mph13.4 kmh 29.96 in1014.6 mb 0.00 in0.0 mm 0.00 in0.0 mm 0.00 in0.0 mm
05:55 PM 67.7°F19.8°C 58.4°F14.7°C 72% 7.7 mph WSW12.4 kmh WSW 10.7 mph17.2 kmh 29.96 in1014.6 mb 0.00 in0.0 mm 0.00 in0.0 mm 0.00 in0.0 mm
06:00 PM 67.7°F19.8°C 58.4°F14.7°C 72% 9.1 mph WSW14.6 kmh WSW 13.1 mph21.1 kmh 29.96 in1014.6 mb 0.00 in0.0 mm 0.00 in0.0 mm 0.00 in0.0 mm
06:05 PM 67.6°F19.8°C 58.2°F14.6°C 72% 8.1 mph WSW13.0 kmh WSW 13.1 mph21.1 kmh 29.96 in1014.6 mb 0.00 in0.0 mm 0.00 in0.0 mm 0.00 in0.0 mm
06:10 PM 67.6°F19.8°C 58.2°F14.6°C 72% 6.4 mph WSW10.3 kmh WSW 10.4 mph16.7 kmh 29.96 in1014.6 mb 0.00 in0.0 mm 0.00 in0.0 mm 0.00 in0.0 mm
06:15 PM 67.6°F19.8°C 58.2°F14.6°C 72% 7.2 mph WSW11.6 kmh WSW 11.6 mph18.7 kmh 29.96 in1014.6 mb 0.00 in0.0 mm 0.00 in0.0 mm 0.00 in0.0 mm
06:20 PM 67.6°F19.8°C 58.2°F14.6°C 72% 7.7 mph WSW12.4 kmh WSW 12.5 mph20.1 kmh 29.96 in1014.6 mb 0.00 in0.0 mm 0.00 in0.0 mm 0.00 in0.0 mm
06:25 PM 67.6°F19.8°C 58.2°F14.6°C 72% 6.8 mph WSW10.9 kmh WSW 12.5 mph20.1 kmh 29.96 in1014.6 mb 0.00 in0.0 mm 0.00 in0.0 mm 0.00 in0.0 mm
06:30 PM 67.6°F19.8°C 58.2°F14.6°C 72% 6.5 mph WSW10.5 kmh WSW 10.1 mph16.3 kmh 29.96 in1014.6 mb 0.00 in0.0 mm 0.00 in0.0 mm 0.00 in0.0 mm
06:35 PM 67.6°F19.8°C 58.2°F14.6°C 72% 8.3 mph WSW13.4 kmh WSW 16.4 mph26.4 kmh 29.96 in1014.6 mb 0.00 in0.0 mm 0.00 in0.0 mm 0.00 in0.0 mm
06:40 PM 67.4°F19.7°C 58.0°F14.4°C 72% 7.2 mph WSW11.6 kmh WSW 16.4 mph26.4 kmh 29.96 in1014.6 mb 0.00 in0.0 mm 0.00 in0.0 mm 0.00 in0.0 mm
06:45 PM 67.4°F19.7°C 58.0°F14.4°C 72% 4.8 mph WSW7.7 kmh WSW 6.5 mph10.5 kmh 29.96 in1014.6 mb 0.00 in0.0 mm 0.00 in0.0 mm 0.00 in0.0 mm
06:50 PM 67.4°F19.7°C 58.4°F14.7°C 73% 6.9 mph WSW11.1 kmh WSW 13.7 mph22.0 kmh 29.96 in1014.6 mb 0.00 in0.0 mm 0.00 in0.0 mm 0.00 in0.0 mm
06:55 PM 67.2°F19.6°C 58.2°F14.6°C 73% 9.5 mph WSW15.3 kmh WSW 13.7 mph22.0 kmh 29.96 in1014.6 mb 0.00 in0.0 mm 0.00 in0.0 mm 0.00 in0.0 mm
07:00 PM 67.0°F19.4°C 58.1°F14.5°C 73% 9.7 mph WSW15.6 kmh WSW 16.1 mph25.9 kmh 29.96 in1014.6 mb 0.00 in0.0 mm 0.00 in0.0 mm 0.00 in0.0 mm
07:05 PM 67.0°F19.4°C 58.1°F14.5°C 73% 8.9 mph WSW14.3 kmh WSW 16.1 mph25.9 kmh 29.96 in1014.6 mb 0.00 in0.0 mm 0.00 in0.0 mm 0.00 in0.0 mm
07:10 PM 67.0°F19.4°C 58.1°F14.5°C 73% 8.3 mph WSW13.4 kmh WSW 11.6 mph18.7 kmh 29.96 in1014.6 mb 0.00 in0.0 mm 0.00 in0.0 mm 0.00 in0.0 mm
07:15 PM 66.8°F19.3°C 58.3°F14.6°C 74% 8.2 mph WSW13.2 kmh WSW 11.6 mph18.7 kmh 29.96 in1014.6 mb 0.00 in0.0 mm 0.00 in0.0 mm 0.00 in0.0 mm
07:20 PM 66.7°F19.3°C 58.1°F14.5°C 74% 7.7 mph WSW12.4 kmh WSW 11.6 mph18.7 kmh 29.96 in1014.6 mb 0.00 in0.0 mm 0.00 in0.0 mm 0.00 in0.0 mm
07:25 PM 66.5°F19.2°C 58.3°F14.6°C 75% 8.6 mph WSW13.8 kmh WSW 12.2 mph19.6 kmh 29.96 in1014.6 mb 0.00 in0.0 mm 0.00 in0.0 mm 0.00 in0.0 mm
07:30 PM 66.5°F19.2°C 58.3°F14.6°C 75% 7.9 mph W12.7 kmh W 12.2 mph19.6 kmh 29.96 in1014.6 mb 0.00 in0.0 mm 0.00 in0.0 mm 0.00 in0.0 mm
07:35 PM 66.3°F19.1°C 58.5°F14.7°C 76% 6.6 mph WSW10.6 kmh WSW 10.7 mph17.2 kmh 29.96 in1014.6 mb 0.00 in0.0 mm 0.00 in0.0 mm 0.00 in0.0 mm
07:40 PM 66.3°F19.1°C 58.5°F14.7°C 76% 8.5 mph WSW13.7 kmh WSW 12.2 mph19.6 kmh 29.96 in1014.6 mb 0.00 in0.0 mm 0.00 in0.0 mm 0.00 in0.0 mm
07:45 PM 66.3°F19.1°C 58.5°F14.7°C 76% 9.7 mph WSW15.6 kmh WSW 13.4 mph21.6 kmh 29.96 in1014.6 mb 0.00 in0.0 mm 0.00 in0.0 mm 0.00 in0.0 mm
07:50 PM 66.1°F18.9°C 58.3°F14.6°C 76% 10.0 mph WSW16.1 kmh WSW 13.4 mph21.6 kmh 29.96 in1014.6 mb 0.00 in0.0 mm 0.00 in0.0 mm 0.00 in0.0 mm
07:55 PM 65.9°F18.8°C 58.1°F14.5°C 76% 10.1 mph WSW16.3 kmh WSW 13.1 mph21.1 kmh 29.96 in1014.6 mb 0.00 in0.0 mm 0.00 in0.0 mm 0.00 in0.0 mm
08:00 PM 65.9°F18.8°C 58.1°F14.5°C 76% 9.5 mph WSW15.3 kmh WSW 13.1 mph21.1 kmh 29.96 in1014.6 mb 0.00 in0.0 mm 0.00 in0.0 mm 0.00 in0.0 mm
08:05 PM 65.9°F18.8°C 58.5°F14.7°C 77% 9.5 mph WSW15.3 kmh WSW 13.1 mph21.1 kmh 29.96 in1014.6 mb 0.00 in0.0 mm 0.00 in0.0 mm 0.00 in0.0 mm
08:10 PM 65.8°F18.8°C 58.3°F14.6°C 77% 10.9 mph W17.5 kmh W 17.9 mph28.8 kmh 29.96 in1014.6 mb 0.00 in0.0 mm 0.00 in0.0 mm 0.00 in0.0 mm
08:15 PM 65.8°F18.8°C 58.3°F14.6°C 77% 9.3 mph W15.0 kmh W 17.9 mph28.8 kmh 29.96 in1014.6 mb 0.00 in0.0 mm 0.00 in0.0 mm 0.00 in0.0 mm
08:20 PM 65.8°F18.8°C 58.3°F14.6°C 77% 6.6 mph WSW10.6 kmh WSW 13.4 mph21.6 kmh 29.96 in1014.6 mb 0.00 in0.0 mm 0.00 in0.0 mm 0.00 in0.0 mm
08:25 PM 65.8°F18.8°C 58.3°F14.6°C 77% 5.5 mph WSW8.9 kmh WSW 8.0 mph12.9 kmh 29.96 in1014.6 mb 0.00 in0.0 mm 0.00 in0.0 mm 0.00 in0.0 mm
08:30 PM 65.8°F18.8°C 58.3°F14.6°C 77% 5.6 mph WSW9.0 kmh WSW 8.3 mph13.4 kmh 29.96 in1014.6 mb 0.00 in0.0 mm 0.00 in0.0 mm 0.00 in0.0 mm
08:35 PM 65.6°F18.7°C 58.2°F14.6°C 77% 6.2 mph WSW10.0 kmh WSW 8.6 mph13.8 kmh 29.96 in1014.6 mb 0.00 in0.0 mm 0.00 in0.0 mm 0.00 in0.0 mm
08:40 PM 65.6°F18.7°C 58.2°F14.6°C 77% 6.0 mph WSW9.7 kmh WSW 8.6 mph13.8 kmh 29.96 in1014.6 mb 0.00 in0.0 mm 0.00 in0.0 mm 0.00 in0.0 mm
08:45 PM 65.6°F18.7°C 58.2°F14.6°C 77% 5.4 mph WSW8.7 kmh WSW 8.3 mph13.4 kmh 29.96 in1014.6 mb 0.00 in0.0 mm 0.00 in0.0 mm 0.00 in0.0 mm
08:50 PM 65.6°F18.7°C 58.2°F14.6°C 77% 4.1 mph WSW6.6 kmh WSW 5.1 mph8.2 kmh 29.93 in1013.5 mb 0.00 in0.0 mm 0.00 in0.0 mm 0.00 in0.0 mm
08:55 PM 65.4°F18.6°C 58.0°F14.4°C 77% 3.5 mph SW5.6 kmh SW 5.1 mph8.2 kmh 29.93 in1013.5 mb 0.00 in0.0 mm 0.00 in0.0 mm 0.00 in0.0 mm
09:00 PM 65.4°F18.6°C 58.0°F14.4°C 77% 3.1 mph SW5.0 kmh SW 4.8 mph7.7 kmh 29.93 in1013.5 mb 0.00 in0.0 mm 0.00 in0.0 mm 0.00 in0.0 mm
09:05 PM 65.4°F18.6°C 58.3°F14.6°C 78% 3.6 mph SW5.8 kmh SW 4.8 mph7.7 kmh 29.93 in1013.5 mb 0.00 in0.0 mm 0.00 in0.0 mm 0.00 in0.0 mm
09:10 PM 65.2°F18.4°C 58.2°F14.6°C 78% 3.8 mph SW6.1 kmh SW 4.8 mph7.7 kmh 29.93 in1013.5 mb 0.00 in0.0 mm 0.00 in0.0 mm 0.00 in0.0 mm
09:15 PM 65.2°F18.4°C 58.2°F14.6°C 78% 4.2 mph SW6.8 kmh SW 7.1 mph11.4 kmh 29.93 in1013.5 mb 0.00 in0.0 mm 0.00 in0.0 mm 0.00 in0.0 mm
09:20 PM 65.0°F18.3°C 58.0°F14.4°C 78% 4.5 mph SW7.2 kmh SW 7.1 mph11.4 kmh 29.93 in1013.5 mb 0.00 in0.0 mm 0.00 in0.0 mm 0.00 in0.0 mm
09:25 PM 64.8°F18.2°C 57.8°F14.3°C 78% 4.5 mph SW7.2 kmh SW 7.4 mph11.9 kmh 29.93 in1013.5 mb 0.00 in0.0 mm 0.00 in0.0 mm 0.00 in0.0 mm
09:30 PM 64.8°F18.2°C 57.8°F14.3°C 78% 4.4 mph SW7.1 kmh SW 7.4 mph11.9 kmh 29.93 in1013.5 mb 0.00 in0.0 mm 0.00 in0.0 mm 0.00 in0.0 mm
09:35 PM 64.7°F18.2°C 57.7°F14.3°C 78% 4.0 mph SW6.4 kmh SW 5.4 mph8.7 kmh 29.93 in1013.5 mb 0.00 in0.0 mm 0.00 in0.0 mm 0.00 in0.0 mm
09:40 PM 64.5°F18.1°C 57.8°F14.3°C 79% 3.8 mph SW6.1 kmh SW 5.4 mph8.7 kmh 29.93 in1013.5 mb 0.00 in0.0 mm 0.00 in0.0 mm 0.00 in0.0 mm
09:45 PM 64.5°F18.1°C 57.8°F14.3°C 79% 4.9 mph SW7.9 kmh SW 10.1 mph16.3 kmh 29.93 in1013.5 mb 0.00 in0.0 mm 0.00 in0.0 mm 0.00 in0.0 mm
09:50 PM 64.5°F18.1°C 57.8°F14.3°C 79% 5.6 mph SW9.0 kmh SW 10.1 mph16.3 kmh 29.93 in1013.5 mb 0.00 in0.0 mm 0.00 in0.0 mm 0.00 in0.0 mm
09:55 PM 64.5°F18.1°C 57.8°F14.3°C 79% 5.3 mph SW8.5 kmh SW 8.3 mph13.4 kmh 29.93 in1013.5 mb 0.00 in0.0 mm 0.00 in0.0 mm 0.00 in0.0 mm
10:00 PM 64.5°F18.1°C 57.8°F14.3°C 79% 4.7 mph SW7.6 kmh SW 8.3 mph13.4 kmh 29.93 in1013.5 mb 0.00 in0.0 mm 0.00 in0.0 mm 0.00 in0.0 mm
10:05 PM 64.5°F18.1°C 57.8°F14.3°C 79% 4.2 mph SSW6.8 kmh SSW 8.3 mph13.4 kmh 29.93 in1013.5 mb 0.00 in0.0 mm 0.00 in0.0 mm 0.00 in0.0 mm
10:10 PM 64.5°F18.1°C 57.8°F14.3°C 79% 4.5 mph SW7.2 kmh SW 8.0 mph12.9 kmh 29.93 in1013.5 mb 0.00 in0.0 mm 0.00 in0.0 mm 0.00 in0.0 mm
10:15 PM 64.5°F18.1°C 57.8°F14.3°C 79% 5.2 mph SW8.4 kmh SW 8.3 mph13.4 kmh 29.93 in1013.5 mb 0.00 in0.0 mm 0.00 in0.0 mm 0.00 in0.0 mm
10:20 PM 64.3°F17.9°C 57.7°F14.3°C 79% 4.6 mph S7.4 kmh S 8.3 mph13.4 kmh 29.93 in1013.5 mb 0.00 in0.0 mm 0.00 in0.0 mm 0.00 in0.0 mm
10:25 PM 64.3°F17.9°C 58.0°F14.4°C 80% 4.6 mph SSW7.4 kmh SSW 7.4 mph11.9 kmh 29.93 in1013.5 mb 0.00 in0.0 mm 0.00 in0.0 mm 0.00 in0.0 mm
10:30 PM 64.3°F17.9°C 58.0°F14.4°C 80% 4.9 mph SSW7.9 kmh SSW 6.5 mph10.5 kmh 29.93 in1013.5 mb 0.00 in0.0 mm 0.00 in0.0 mm 0.00 in0.0 mm
10:35 PM 64.3°F17.9°C 58.0°F14.4°C 80% 4.2 mph SSW6.8 kmh SSW 6.2 mph10.0 kmh 29.90 in1012.5 mb 0.00 in0.0 mm 0.00 in0.0 mm 0.00 in0.0 mm
10:40 PM 64.1°F17.8°C 57.8°F14.3°C 80% 4.0 mph SW6.4 kmh SW 7.4 mph11.9 kmh 29.90 in1012.5 mb 0.00 in0.0 mm 0.00 in0.0 mm 0.00 in0.0 mm
10:45 PM 64.1°F17.8°C 57.8°F14.3°C 80% 5.0 mph SW8.0 kmh SW 9.5 mph15.3 kmh 29.90 in1012.5 mb 0.00 in0.0 mm 0.00 in0.0 mm 0.00 in0.0 mm
10:50 PM 64.1°F17.8°C 57.8°F14.3°C 80% 5.0 mph SW8.0 kmh SW 9.5 mph15.3 kmh 29.90 in1012.5 mb 0.00 in0.0 mm 0.00 in0.0 mm 0.00 in0.0 mm
10:55 PM 64.1°F17.8°C 57.8°F14.3°C 80% 5.6 mph SW9.0 kmh SW 10.1 mph16.3 kmh 29.90 in1012.5 mb 0.00 in0.0 mm 0.00 in0.0 mm 0.00 in0.0 mm
11:00 PM 64.0°F17.8°C 57.7°F14.3°C 80% 6.9 mph SW11.1 kmh SW 10.4 mph16.7 kmh 29.90 in1012.5 mb 0.00 in0.0 mm 0.00 in0.0 mm 0.00 in0.0 mm
11:05 PM 64.0°F17.8°C 57.7°F14.3°C 80% 6.2 mph SW10.0 kmh SW 10.4 mph16.7 kmh 29.90 in1012.5 mb 0.00 in0.0 mm 0.00 in0.0 mm 0.00 in0.0 mm
11:10 PM 64.0°F17.8°C 57.7°F14.3°C 80% 7.5 mph SW12.1 kmh SW 10.1 mph16.3 kmh 29.90 in1012.5 mb 0.00 in0.0 mm 0.00 in0.0 mm 0.00 in0.0 mm
11:15 PM 63.8°F17.7°C 57.5°F14.2°C 80% 7.7 mph SW12.4 kmh SW 9.8 mph15.8 kmh 29.90 in1012.5 mb 0.00 in0.0 mm 0.00 in0.0 mm 0.00 in0.0 mm
11:20 PM 63.8°F17.7°C 57.5°F14.2°C 80% 5.1 mph SW8.2 kmh SW 8.3 mph13.4 kmh 29.90 in1012.5 mb 0.00 in0.0 mm 0.00 in0.0 mm 0.00 in0.0 mm
11:25 PM 63.8°F17.7°C 57.5°F14.2°C 80% 4.9 mph SSW7.9 kmh SSW 8.6 mph13.8 kmh 29.90 in1012.5 mb 0.00 in0.0 mm 0.00 in0.0 mm 0.00 in0.0 mm
11:30 PM 63.8°F17.7°C 57.8°F14.3°C 81% 5.5 mph SSW8.9 kmh SSW 8.6 mph13.8 kmh 29.90 in1012.5 mb 0.00 in0.0 mm 0.00 in0.0 mm 0.00 in0.0 mm
11:35 PM 63.6°F17.6°C 57.7°F14.3°C 81% 5.4 mph SSW8.7 kmh SSW 8.3 mph13.4 kmh 29.90 in1012.5 mb 0.00 in0.0 mm 0.00 in0.0 mm 0.00 in0.0 mm
11:40 PM 63.6°F17.6°C 57.7°F14.3°C 81% 6.1 mph S9.8 kmh S 8.6 mph13.8 kmh 29.90 in1012.5 mb 0.00 in0.0 mm 0.00 in0.0 mm 0.00 in0.0 mm
11:45 PM 63.6°F17.6°C 57.7°F14.3°C 81% 7.1 mph SSW11.4 kmh SSW 9.8 mph15.8 kmh 29.90 in1012.5 mb 0.00 in0.0 mm 0.00 in0.0 mm 0.00 in0.0 mm
11:50 PM 63.6°F17.6°C 57.7°F14.3°C 81% 6.7 mph SSW10.8 kmh SSW 9.8 mph15.8 kmh 29.90 in1012.5 mb 0.00 in0.0 mm 0.00 in0.0 mm 0.00 in0.0 mm
11:55 PM 63.6°F17.6°C 57.7°F14.3°C 81% 6.3 mph SSW10.1 kmh SSW 9.5 mph15.3 kmh 29.90 in1012.5 mb 0.00 in0.0 mm 0.00 in0.0 mm 0.00 in0.0 mm